»·PEaware :: DAL1174 KLAS-KLAX

DAL1174 :: KLAS-KLAX

FLIGHT INFORMATION

Flight Status: Arrived
Operator:
Delta Air Lines
More flights by this operator :: More flights under this callsign
Pilot: Alfredo R. (12181)
Aircraft: AIRBUS A320
(A320)
More flights by this aircraft type
Origin: KLAS McCarran Intl
United States
Destination: KLAX Los Angeles Intl
United States
More flights between these airports :: More routes between these airports
Route: +BOACH8 RIKII SHTNR ANJLL4
File this flight plan on PilotEdge
Remarks:
Altitude:
(Current/Filed)
320ft
Speed:
(Current/Filed)
425kts
Departed: 15-Feb-20 01:39 PM
Arrived: 15-Feb-20 02:21 PM
Distance/Time
Traveled:
205nm/0:42
Distance/Time
To Go:
Arrived

Flight Plot

Page will automatically refresh every two minutes.

Flight plan parsing failed; only flown route is shown


Map Options




Map Legend


Flown Route
Filed Route
Departure Airport
Arrival Airport
Navaid (VOR, NDB)
Fix

Horizontal Profiles

Position Reports

Time Latitude Longitude Heading Altitude Ground
Speed
15-Feb-20 12:51 36.079865 -115.139539 355 2074ft 0kts
15-Feb-20 12:52 36.079865 -115.139539 355 2074ft 0kts
15-Feb-20 12:53 36.079865 -115.139539 355 2074ft 0kts
15-Feb-20 12:54 36.079865 -115.139539 355 2074ft 0kts
15-Feb-20 12:55 36.079865 -115.139539 355 2074ft 0kts
15-Feb-20 12:56 36.079865 -115.139539 355 2074ft 0kts
15-Feb-20 12:57 36.079865 -115.139539 355 2074ft 0kts
15-Feb-20 12:58 36.079865 -115.139539 355 2074ft 0kts
15-Feb-20 12:59 36.079865 -115.139539 355 2074ft 0kts
15-Feb-20 13:00 36.079865 -115.139539 355 2074ft 0kts
15-Feb-20 13:01 36.079865 -115.139539 355 2074ft 0kts
15-Feb-20 13:02 36.079865 -115.139539 355 2074ft 0kts
15-Feb-20 13:03 36.079865 -115.139539 355 2074ft 0kts
15-Feb-20 13:04 36.079865 -115.139539 355 2074ft 0kts
15-Feb-20 13:05 36.079865 -115.139539 355 2074ft 0kts
15-Feb-20 13:06 36.079865 -115.139539 355 2074ft 0kts
15-Feb-20 13:07 36.079865 -115.139539 355 2074ft 0kts
15-Feb-20 13:08 36.079865 -115.139539 355 2074ft 0kts
15-Feb-20 13:09 36.079865 -115.139539 355 2074ft 0kts
15-Feb-20 13:10 36.079865 -115.139539 355 2074ft 0kts
15-Feb-20 13:11 36.079865 -115.139539 355 2074ft 0kts
15-Feb-20 13:12 36.079865 -115.139539 355 2074ft 0kts
15-Feb-20 13:13 36.079865 -115.139539 355 2074ft 0kts
15-Feb-20 13:14 36.079865 -115.139539 355 2074ft 0kts
15-Feb-20 13:15 36.079865 -115.139539 355 2074ft 0kts
15-Feb-20 13:16 36.079865 -115.139539 355 2074ft 0kts
15-Feb-20 13:17 36.079865 -115.139539 355 2074ft 0kts
15-Feb-20 13:18 36.079865 -115.139539 355 2074ft 0kts
15-Feb-20 13:19 36.079864 -115.139539 355 2074ft 0kts
15-Feb-20 13:20 36.079864 -115.139539 355 2074ft 0kts
15-Feb-20 13:21 36.079864 -115.139539 355 2074ft 0kts
15-Feb-20 13:22 36.079864 -115.139539 355 2074ft 0kts
15-Feb-20 13:23 36.079864 -115.139539 355 2074ft 0kts
15-Feb-20 13:24 36.079432 -115.139493 348 2075ft 2kts
15-Feb-20 13:25 36.079348 -115.138900 218 2074ft 2kts
15-Feb-20 13:26 36.079275 -115.138996 225 2074ft 0kts
15-Feb-20 13:27 36.079274 -115.138997 225 2074ft 0kts
15-Feb-20 13:28 36.079274 -115.138997 225 2074ft 0kts
15-Feb-20 13:29 36.079274 -115.138997 225 2074ft 0kts
15-Feb-20 13:30 36.079274 -115.138997 225 2074ft 0kts
15-Feb-20 13:31 36.079185 -115.139107 224 2075ft 2kts
15-Feb-20 13:32 36.078250 -115.136907 89 2070ft 23kts
15-Feb-20 13:33 36.078252 -115.129050 89 2047ft 19kts
15-Feb-20 13:34 36.078168 -115.122679 115 2036ft 14kts
15-Feb-20 13:35 36.077354 -115.121442 152 2037ft 0kts
15-Feb-20 13:36 36.077354 -115.121442 152 2037ft 0kts
15-Feb-20 13:37 36.076725 -115.121323 187 2038ft 7kts
15-Feb-20 13:38 36.076393 -115.126522 270 2046ft 44kts
15-Feb-20 13:39 36.076558 -115.172853 272 2720ft 177kts
15-Feb-20 13:40 36.077261 -115.250957 270 4029ft 299kts
15-Feb-20 13:41 36.039728 -115.341996 189 8126ft 337kts
15-Feb-20 13:42 35.959462 -115.314353 190 12200ft 272kts
15-Feb-20 13:43 35.886321 -115.323404 214 14186ft 288kts
15-Feb-20 13:44 35.790762 -115.331771 181 14440ft 397kts
15-Feb-20 13:45 35.676643 -115.327831 181 17138ft 412kts
15-Feb-20 13:46 35.559275 -115.308817 177 19486ft 430kts
15-Feb-20 13:47 35.448100 -115.344398 215 21822ft 418kts
15-Feb-20 13:48 35.347404 -115.416947 215 24237ft 418kts
15-Feb-20 13:49 35.246252 -115.490257 216 26239ft 422kts
15-Feb-20 13:50 35.143675 -115.564325 215 28050ft 425kts
15-Feb-20 13:51 35.067180 -115.668418 236 29640ft 413kts
15-Feb-20 13:52 34.995965 -115.779248 237 31171ft 412kts
15-Feb-20 13:53 34.925228 -115.889551 237 32240ft 414kts
15-Feb-20 13:54 34.854956 -115.998410 237 32237ft 408kts
15-Feb-20 13:55 34.784842 -116.106973 237 32238ft 408kts
15-Feb-20 13:56 34.717450 -116.211081 236 32230ft 411kts
15-Feb-20 13:57 34.645827 -116.321396 236 32142ft 419kts
15-Feb-20 13:58 34.573320 -116.432732 236 30623ft 420kts
15-Feb-20 13:59 34.500497 -116.544160 236 28848ft 422kts
15-Feb-20 14:00 34.427605 -116.655362 235 27063ft 418kts
15-Feb-20 14:01 34.354426 -116.766030 235 25275ft 414kts
15-Feb-20 14:02 34.282789 -116.874629 235 23504ft 411kts
15-Feb-20 14:03 34.211452 -116.984929 244 21695ft 403kts
15-Feb-20 14:04 34.177028 -117.109230 255 19932ft 382kts
15-Feb-20 14:05 34.143875 -117.230830 254 17938ft 374kts
15-Feb-20 14:07 34.111210 -117.349247 254 15992ft 365kts
15-Feb-20 14:08 34.081963 -117.464121 256 14193ft 353kts
15-Feb-20 14:09 34.053790 -117.575478 255 12398ft 343kts
15-Feb-20 14:10 34.026142 -117.682565 254 10819ft 327kts
15-Feb-20 14:11 34.013359 -117.787653 265 9438ft 307kts
15-Feb-20 14:12 34.003651 -117.887623 265 8197ft 288kts
15-Feb-20 14:13 33.994650 -117.979566 264 7273ft 264kts
15-Feb-20 14:14 33.986199 -118.064829 264 6348ft 247kts
15-Feb-20 14:15 33.979122 -118.136311 263 5378ft 184kts
15-Feb-20 14:16 33.973081 -118.197090 263 4111ft 182kts
15-Feb-20 14:17 33.967299 -118.254186 263 2811ft 159kts
15-Feb-20 14:18 33.961889 -118.307244 263 1696ft 150kts
15-Feb-20 14:19 33.957063 -118.354286 262 936ft 140kts
15-Feb-20 14:20 33.952442 -118.399050 261 213ft 135kts
15-Feb-20 14:21 33.950101 -118.421145 261 120ft 33kts
15-Feb-20 14:22 33.948522 -118.426766 223 113ft 0kts
15-Feb-20 14:23 33.948032 -118.427300 219 111ft 11kts
15-Feb-20 14:24 33.946983 -118.427772 186 110ft 0kts
15-Feb-20 14:25 33.946431 -118.426320 82 110ft 13kts
15-Feb-20 14:26 33.946977 -118.420894 83 119ft 18kts
15-Feb-20 14:26 33.947600 -118.414890 83 122ft 22kts
15-Feb-20 14:28 33.948512 -118.406132 129 120ft 13kts
15-Feb-20 14:29 33.946923 -118.404844 115 120ft 0kts

Navigation Log

Ident Type
Flight plan parsing failed, navigation log unavailable